createdAt,value
2023-05-15T00:00:17.189Z,18.70
2023-05-15T00:03:02.548Z,18.80
2023-05-15T00:05:48.336Z,19.00
2023-05-15T00:08:38.492Z,19.30
2023-05-15T00:11:23.707Z,19.40
2023-05-15T00:14:09.722Z,19.60
2023-05-15T00:16:55.709Z,19.70
2023-05-15T00:19:41.132Z,19.90
2023-05-15T00:22:26.362Z,19.70
2023-05-15T00:25:12.324Z,19.20
2023-05-15T00:28:01.222Z,19.40
2023-05-15T00:30:46.681Z,18.60
2023-05-15T00:33:32.362Z,18.80
2023-05-15T00:36:18.689Z,18.70
2023-05-15T00:39:06.419Z,19.10
2023-05-15T00:41:52.318Z,19.30
2023-05-15T00:44:41.485Z,19.40
2023-05-15T00:47:29.367Z,19.40
2023-05-15T00:50:15.914Z,19.60
2023-05-15T00:53:02.097Z,19.10
2023-05-15T00:55:47.505Z,19.50
2023-05-15T00:58:34.570Z,19.60
2023-05-15T01:01:23.203Z,19.70
2023-05-15T01:04:09.501Z,19.70
2023-05-15T01:06:57.436Z,20.00
2023-05-15T01:09:45.914Z,19.90
2023-05-15T01:12:32.692Z,19.90
2023-05-15T01:15:18.486Z,20.00
2023-05-15T01:18:04.093Z,20.20
2023-05-15T01:21:04.429Z,20.30
2023-05-15T01:24:16.474Z,20.30
2023-05-15T01:27:28.412Z,20.00
2023-05-15T01:30:26.202Z,20.50
2023-05-15T01:33:34.293Z,20.60
2023-05-15T01:36:30.469Z,20.80
2023-05-15T01:39:23.129Z,21.20
2023-05-15T01:42:11.062Z,21.40
2023-05-15T01:44:57.690Z,21.70
2023-05-15T01:47:48.307Z,21.80
2023-05-15T01:50:36.062Z,21.90
2023-05-15T01:53:23.484Z,22.60
2023-05-15T01:56:14.964Z,22.60
2023-05-15T01:59:00.799Z,22.60
2023-05-15T02:01:46.903Z,22.80
2023-05-15T02:04:33.982Z,23.00
2023-05-15T02:07:23.065Z,23.00
2023-05-15T02:10:11.925Z,23.40
2023-05-15T02:13:01.196Z,23.60
2023-05-15T02:15:47.586Z,23.80
2023-05-15T02:18:36.465Z,24.00
2023-05-15T02:21:24.405Z,23.90
2023-05-15T02:24:09.606Z,23.90
2023-05-15T02:27:18.265Z,24.20
2023-05-15T02:30:20.282Z,24.10
2023-05-15T02:33:17.719Z,24.20
2023-05-15T02:36:07.416Z,24.30
2023-05-15T02:38:56.646Z,24.40
2023-05-15T02:41:42.505Z,23.80
2023-05-15T02:44:28.867Z,23.80
2023-05-15T02:47:15.008Z,23.90
2023-05-15T02:50:03.670Z,24.00
2023-05-15T02:52:49.791Z,24.80
2023-05-15T02:55:38.159Z,24.20
2023-05-15T02:58:26.521Z,24.90
2023-05-15T03:01:12.403Z,24.40
2023-05-15T03:04:00.971Z,25.30
2023-05-15T03:06:46.849Z,25.40
2023-05-15T03:09:34.397Z,25.40
2023-05-15T03:12:19.689Z,25.60
2023-05-15T03:15:08.754Z,25.80
2023-05-15T03:17:54.288Z,25.90
2023-05-15T03:20:39.522Z,26.00
2023-05-15T03:23:24.896Z,26.10
2023-05-15T03:26:12.216Z,26.40
2023-05-15T03:28:58.197Z,26.60
2023-05-15T03:31:45.926Z,26.70
2023-05-15T03:34:32.291Z,26.80
2023-05-15T03:37:17.574Z,26.90
2023-05-15T03:40:04.880Z,26.90
2023-05-15T03:42:53.359Z,26.90
2023-05-15T03:45:42.029Z,27.00
2023-05-15T03:48:27.168Z,27.00
2023-05-15T03:51:12.747Z,26.30
2023-05-15T03:53:58.504Z,26.30
2023-05-15T03:56:44.021Z,26.30
2023-05-15T03:59:29.610Z,26.40
2023-05-15T04:02:15.079Z,26.40
2023-05-15T04:05:00.583Z,26.50
2023-05-15T04:07:45.946Z,26.70
2023-05-15T04:10:32.705Z,26.60
2023-05-15T04:13:18.080Z,26.30
2023-05-15T04:16:07.267Z,25.90
2023-05-15T04:18:53.026Z,24.90
2023-05-15T04:21:38.418Z,23.60
2023-05-15T04:24:26.104Z,23.40
2023-05-15T04:27:11.596Z,23.30
2023-05-15T04:30:00.299Z,23.00
2023-05-15T04:32:51.811Z,22.80
2023-05-15T04:35:37.878Z,23.30
2023-05-15T04:38:23.269Z,22.50
2023-05-15T04:41:08.791Z,21.80
2023-05-15T04:43:54.444Z,21.00
2023-05-15T04:46:39.817Z,20.80
2023-05-15T04:49:25.621Z,20.30
2023-05-15T04:52:11.260Z,20.50
2023-05-15T04:54:56.677Z,20.40
2023-05-15T04:57:41.849Z,20.20
2023-05-15T05:00:28.900Z,19.80
2023-05-15T05:03:14.377Z,19.70
2023-05-15T05:06:01.405Z,19.00
2023-05-15T05:08:46.826Z,19.10
2023-05-15T05:11:34.499Z,19.00
2023-05-15T05:14:20.010Z,18.90
2023-05-15T05:17:05.323Z,18.60
2023-05-15T05:19:50.936Z,18.50
2023-05-15T05:22:37.881Z,17.90
2023-05-15T05:25:25.747Z,17.80
2023-05-15T05:28:11.323Z,17.60
2023-05-15T05:30:56.970Z,17.10
2023-05-15T05:33:42.418Z,16.90
2023-05-15T05:36:28.062Z,16.90
2023-05-15T05:39:14.014Z,16.90
2023-05-15T05:42:00.070Z,16.80
2023-05-15T05:44:45.803Z,16.70
2023-05-15T05:47:34.766Z,16.20
2023-05-15T05:50:20.686Z,16.60
2023-05-15T05:53:08.597Z,16.40
2023-05-15T05:55:54.487Z,16.50
2023-05-15T05:58:39.806Z,15.80
2023-05-15T06:01:25.160Z,16.70
2023-05-15T06:04:10.460Z,15.50
2023-05-15T06:06:59.201Z,14.80
2023-05-15T06:09:45.971Z,14.90
2023-05-15T06:12:31.572Z,14.50
2023-05-15T06:15:17.182Z,14.50
2023-05-15T06:18:02.859Z,14.50
2023-05-15T06:20:50.814Z,13.70
2023-05-15T06:23:36.394Z,13.80
2023-05-15T06:26:21.922Z,12.70
2023-05-15T06:29:07.630Z,11.90
2023-05-15T06:31:55.707Z,11.40
2023-05-15T06:34:43.850Z,10.70
2023-05-15T06:37:29.194Z,9.40
2023-05-15T06:40:14.560Z,8.60
2023-05-15T06:42:59.832Z,7.60
2023-05-15T06:45:45.703Z,7.20
2023-05-15T06:48:30.957Z,6.50
2023-05-15T06:51:18.832Z,6.20
2023-05-15T06:54:08.958Z,5.00
2023-05-15T06:56:56.513Z,4.70
2023-05-15T06:59:42.741Z,4.30
2023-05-15T07:02:28.261Z,4.00
2023-05-15T07:05:14.751Z,3.20
2023-05-15T07:08:00.631Z,2.70
2023-05-15T07:10:46.281Z,1.90
2023-05-15T07:13:34.943Z,1.60
2023-05-15T07:16:22.666Z,1.00
2023-05-15T07:19:11.226Z,1.00
2023-05-15T07:21:56.709Z,1.00
2023-05-15T07:24:42.811Z,1.00
2023-05-15T07:27:28.151Z,1.00
2023-05-15T07:30:16.938Z,1.00
2023-05-15T07:33:03.000Z,1.00
2023-05-15T07:35:50.777Z,1.00
2023-05-15T07:38:37.086Z,1.00
2023-05-15T07:41:26.848Z,1.00
2023-05-15T07:44:14.178Z,1.00
2023-05-15T07:47:02.633Z,1.00
2023-05-15T07:49:48.101Z,1.00
2023-05-15T07:52:33.750Z,1.00
2023-05-15T07:55:19.036Z,1.00
2023-05-15T07:58:04.570Z,1.00
2023-05-15T08:00:50.308Z,1.00
2023-05-15T08:03:35.954Z,1.00
2023-05-15T08:06:21.291Z,1.00
2023-05-15T08:09:07.052Z,1.00
2023-05-15T08:11:55.482Z,1.00
2023-05-15T08:14:40.976Z,1.00
2023-05-15T08:17:29.682Z,1.00
2023-05-15T08:20:15.591Z,1.00
2023-05-15T08:23:00.980Z,1.00
2023-05-15T08:25:46.610Z,1.00
2023-05-15T08:28:33.297Z,1.00
2023-05-15T08:31:18.612Z,1.00
2023-05-15T08:34:03.945Z,1.00
2023-05-15T08:36:49.389Z,1.00
2023-05-15T08:39:37.455Z,1.00
2023-05-15T08:42:35.243Z,1.00
2023-05-15T08:45:24.134Z,1.00
2023-05-15T08:48:14.169Z,1.00
2023-05-15T08:51:01.531Z,1.00
2023-05-15T08:53:47.305Z,1.00
2023-05-15T08:56:33.372Z,1.00
2023-05-15T08:59:21.897Z,1.00
2023-05-15T09:02:07.492Z,1.00
2023-05-15T09:04:56.062Z,1.00
2023-05-15T09:07:42.642Z,1.00
2023-05-15T09:10:31.737Z,1.00
2023-05-15T09:13:20.417Z,1.00
2023-05-15T09:16:09.375Z,1.00
2023-05-15T09:18:54.783Z,1.00
2023-05-15T09:21:43.067Z,1.00
2023-05-15T09:24:31.616Z,1.00
2023-05-15T09:27:17.162Z,1.00
2023-05-15T09:30:09.841Z,1.00
2023-05-15T09:32:59.933Z,1.00
2023-05-15T09:35:46.147Z,1.00
2023-05-15T09:38:35.983Z,1.00
2023-05-15T09:41:26.451Z,1.00
2023-05-15T09:44:24.744Z,1.00
2023-05-15T09:47:11.649Z,1.00
2023-05-15T09:49:57.275Z,1.00
2023-05-15T09:52:42.747Z,1.00
2023-05-15T09:55:28.450Z,1.00
2023-05-15T09:58:16.164Z,1.00
2023-05-15T10:01:10.539Z,1.00
2023-05-15T10:04:01.669Z,1.00
2023-05-15T10:06:48.762Z,1.00
2023-05-15T10:09:34.538Z,1.00
2023-05-15T10:12:19.652Z,1.00
2023-05-15T10:15:06.200Z,1.00
2023-05-15T10:17:54.380Z,1.00
2023-05-15T10:20:40.034Z,1.00
2023-05-15T10:23:26.140Z,1.00
2023-05-15T10:26:36.997Z,1.00
2023-05-15T10:29:26.777Z,1.00
2023-05-15T10:32:14.086Z,1.00
2023-05-15T10:34:59.781Z,1.00
2023-05-15T10:37:48.656Z,1.00
2023-05-15T10:40:40.379Z,1.00
2023-05-15T10:43:28.277Z,1.00
2023-05-15T10:46:18.275Z,1.00
2023-05-15T10:49:05.525Z,1.00
2023-05-15T10:51:52.963Z,1.00
2023-05-15T10:54:38.791Z,1.00
2023-05-15T10:57:24.038Z,1.00
2023-05-15T11:00:27.026Z,1.00
2023-05-15T11:03:44.925Z,1.00
2023-05-15T11:06:34.933Z,1.00
2023-05-15T11:09:37.678Z,1.00
2023-05-15T11:12:23.753Z,1.00
2023-05-15T11:15:12.588Z,1.00
2023-05-15T11:18:11.211Z,1.00
2023-05-15T11:20:59.575Z,1.00
2023-05-15T11:23:47.557Z,1.00
2023-05-15T11:26:33.919Z,1.00
2023-05-15T11:29:19.433Z,1.00
2023-05-15T11:32:47.496Z,1.00
2023-05-15T11:35:35.074Z,1.00
2023-05-15T11:38:26.579Z,1.00
2023-05-15T11:41:23.937Z,1.00
2023-05-15T11:44:19.178Z,1.00
2023-05-15T11:47:09.983Z,1.00
2023-05-15T11:49:55.518Z,1.00
2023-05-15T11:52:43.749Z,1.00
2023-05-15T11:55:31.201Z,1.00
2023-05-15T11:58:19.102Z,1.00
2023-05-15T12:01:04.565Z,1.00
2023-05-15T12:03:51.483Z,1.00
2023-05-15T12:06:40.709Z,1.00
2023-05-15T12:09:29.098Z,1.00
2023-05-15T12:12:14.651Z,1.00
2023-05-15T12:15:00.563Z,1.00
2023-05-15T12:17:48.749Z,1.00
2023-05-15T12:20:36.315Z,1.00
2023-05-15T12:23:24.207Z,1.00
2023-05-15T12:26:09.632Z,1.00
2023-05-15T12:28:56.778Z,1.00
2023-05-15T12:31:42.212Z,1.00
2023-05-15T12:34:27.841Z,1.00
2023-05-15T12:37:21.258Z,1.00
2023-05-15T12:40:11.965Z,1.00
2023-05-15T12:42:57.878Z,1.00
2023-05-15T12:45:43.198Z,1.00
2023-05-15T12:48:35.288Z,1.00
2023-05-15T12:51:23.267Z,1.00
2023-05-15T12:54:17.898Z,1.00
2023-05-15T12:57:03.392Z,1.00
2023-05-15T12:59:48.570Z,1.00
2023-05-15T13:02:34.458Z,1.00
2023-05-15T13:05:22.571Z,1.00
2023-05-15T13:08:07.924Z,1.00
2023-05-15T13:11:02.821Z,1.00
2023-05-15T13:13:50.203Z,1.00
2023-05-15T13:16:36.923Z,1.00
2023-05-15T13:19:22.277Z,1.00
2023-05-15T13:22:10.509Z,1.00
2023-05-15T13:24:57.239Z,1.00
2023-05-15T13:27:42.780Z,1.00
2023-05-15T13:30:29.453Z,1.00
2023-05-15T13:33:15.020Z,1.00
2023-05-15T13:36:00.252Z,1.00
2023-05-15T13:38:47.619Z,1.00
2023-05-15T13:41:32.907Z,1.00
2023-05-15T13:44:18.557Z,1.00
2023-05-15T13:47:04.500Z,1.00
2023-05-15T13:49:50.174Z,1.00
2023-05-15T13:52:35.829Z,1.00
2023-05-15T13:55:22.919Z,1.00
2023-05-15T13:58:14.806Z,1.00
2023-05-15T14:01:03.458Z,1.00
2023-05-15T14:03:51.381Z,1.00
2023-05-15T14:06:36.825Z,1.00
2023-05-15T14:09:22.413Z,1.00
2023-05-15T14:12:09.684Z,1.60
2023-05-15T14:14:57.947Z,4.10
2023-05-15T14:17:44.001Z,6.10
2023-05-15T14:20:32.308Z,6.30
2023-05-15T14:23:17.980Z,6.20
2023-05-15T14:26:03.723Z,6.20
2023-05-15T14:28:49.256Z,7.00
2023-05-15T14:31:34.980Z,6.90
2023-05-15T14:34:25.649Z,7.70
2023-05-15T14:37:11.274Z,8.40
2023-05-15T14:39:56.493Z,8.50
2023-05-15T14:42:41.906Z,8.30
2023-05-15T14:45:27.668Z,7.10
2023-05-15T14:48:13.340Z,5.20
2023-05-15T14:50:58.695Z,3.30
2023-05-15T14:53:44.631Z,2.30
2023-05-15T14:56:29.937Z,1.00
2023-05-15T14:59:15.573Z,1.00
2023-05-15T15:02:04.786Z,1.00
2023-05-15T15:04:53.077Z,1.00
2023-05-15T15:08:01.586Z,1.00
2023-05-15T15:10:46.763Z,1.00
2023-05-15T15:13:32.516Z,1.00
2023-05-15T15:16:17.944Z,1.00
2023-05-15T15:19:03.589Z,1.00
2023-05-15T15:21:49.383Z,1.00
2023-05-15T15:24:34.567Z,1.00
2023-05-15T15:27:20.237Z,1.00
2023-05-15T15:30:08.061Z,1.00
2023-05-15T15:32:54.718Z,1.00
2023-05-15T15:35:40.967Z,1.00
2023-05-15T15:38:28.431Z,1.00
2023-05-15T15:41:16.862Z,1.00
2023-05-15T15:44:02.411Z,1.00
2023-05-15T15:46:47.803Z,1.00
2023-05-15T15:49:34.093Z,1.00
2023-05-15T15:52:22.522Z,1.00
2023-05-15T15:55:08.725Z,1.00
2023-05-15T15:57:54.063Z,1.00
2023-05-15T16:00:41.835Z,1.00
2023-05-15T16:03:27.245Z,1.00
2023-05-15T16:06:14.897Z,1.00
2023-05-15T16:09:02.752Z,1.00
2023-05-15T16:11:48.052Z,1.00
2023-05-15T16:14:33.665Z,1.00
2023-05-15T16:17:19.205Z,1.30
2023-05-15T16:20:05.444Z,1.90
2023-05-15T16:22:50.856Z,1.90
2023-05-15T16:25:37.235Z,2.00
2023-05-15T16:28:24.910Z,2.30
2023-05-15T16:31:10.782Z,2.70
2023-05-15T16:34:00.308Z,3.00
2023-05-15T16:36:47.090Z,3.50
2023-05-15T16:39:38.577Z,4.00
2023-05-15T16:42:24.140Z,4.30
2023-05-15T16:45:10.736Z,3.80
2023-05-15T16:47:56.870Z,3.50
2023-05-15T16:50:42.646Z,3.00
2023-05-15T16:53:30.439Z,2.40
2023-05-15T16:56:18.738Z,2.50
2023-05-15T16:59:06.376Z,1.90
2023-05-15T17:01:52.830Z,1.90
2023-05-15T17:04:40.883Z,2.00
2023-05-15T17:07:28.447Z,2.10
2023-05-15T17:10:16.355Z,2.50
2023-05-15T17:13:01.787Z,2.50
2023-05-15T17:15:49.729Z,2.30
2023-05-15T17:18:35.253Z,2.40
2023-05-15T17:21:21.507Z,2.40
2023-05-15T17:24:07.144Z,2.70
2023-05-15T17:26:52.580Z,3.10
2023-05-15T17:29:40.902Z,3.50
2023-05-15T17:32:30.895Z,4.00
2023-05-15T17:35:16.574Z,4.20
2023-05-15T17:38:02.561Z,4.20
2023-05-15T17:40:48.444Z,4.20
2023-05-15T17:43:33.962Z,4.20
2023-05-15T17:46:19.263Z,4.20
2023-05-15T17:49:05.006Z,4.20
2023-05-15T17:51:51.087Z,4.50
2023-05-15T17:54:38.851Z,4.90
2023-05-15T17:57:24.629Z,5.40
2023-05-15T18:00:12.858Z,5.70
2023-05-15T18:02:58.693Z,5.90
2023-05-15T18:05:48.831Z,6.10
2023-05-15T18:08:34.708Z,6.40
2023-05-15T18:11:23.113Z,6.50
2023-05-15T18:14:09.271Z,6.90
2023-05-15T18:16:55.656Z,7.20
2023-05-15T18:19:44.741Z,7.20
2023-05-15T18:22:30.232Z,7.40
2023-05-15T18:25:15.944Z,7.80
2023-05-15T18:28:01.630Z,8.00
2023-05-15T18:30:47.480Z,8.20
2023-05-15T18:33:35.686Z,8.20
2023-05-15T18:36:21.088Z,8.10
2023-05-15T18:39:10.048Z,8.40
2023-05-15T18:41:56.012Z,8.80
2023-05-15T18:44:41.666Z,8.80
2023-05-15T18:47:27.789Z,8.70
2023-05-15T18:50:15.128Z,8.80
2023-05-15T18:53:00.836Z,8.60
2023-05-15T18:55:46.062Z,8.50
2023-05-15T18:58:31.643Z,8.10
2023-05-15T19:01:17.351Z,8.20
2023-05-15T19:04:03.787Z,8.10
2023-05-15T19:06:50.412Z,8.10
2023-05-15T19:09:35.956Z,8.10
2023-05-15T19:12:21.418Z,8.10
2023-05-15T19:15:07.855Z,8.10
2023-05-15T19:17:53.244Z,8.10
2023-05-15T19:20:38.744Z,8.10
2023-05-15T19:23:24.619Z,8.50
2023-05-15T19:26:12.781Z,9.10
2023-05-15T19:28:58.255Z,9.50
2023-05-15T19:31:44.030Z,9.80
2023-05-15T19:34:32.461Z,10.40
2023-05-15T19:37:18.009Z,10.90
2023-05-15T19:40:04.234Z,11.30
2023-05-15T19:42:50.097Z,11.80
2023-05-15T19:45:35.667Z,12.40
2023-05-15T19:48:21.024Z,12.60
2023-05-15T19:51:06.363Z,13.50
2023-05-15T19:53:52.291Z,14.10
2023-05-15T19:56:38.268Z,14.60
2023-05-15T19:59:26.008Z,15.90
2023-05-15T20:02:13.362Z,16.40
2023-05-15T20:04:58.824Z,16.90
2023-05-15T20:07:44.571Z,17.20
2023-05-15T20:10:29.824Z,17.40
2023-05-15T20:13:15.107Z,17.50
2023-05-15T20:16:07.042Z,17.80
2023-05-15T20:18:55.593Z,17.80
2023-05-15T20:21:43.246Z,18.20
2023-05-15T20:24:28.849Z,18.20
2023-05-15T20:27:14.207Z,18.10
2023-05-15T20:30:01.408Z,18.00
2023-05-15T20:32:47.183Z,18.60
2023-05-15T20:35:33.089Z,18.20
2023-05-15T20:38:19.350Z,18.50
2023-05-15T20:41:04.556Z,18.40
2023-05-15T20:43:52.783Z,18.60
2023-05-15T20:46:43.545Z,18.80
2023-05-15T20:49:29.501Z,18.80
2023-05-15T20:52:17.497Z,18.80
2023-05-15T20:55:04.325Z,18.70
2023-05-15T20:57:50.671Z,18.40
2023-05-15T21:00:36.420Z,17.80
2023-05-15T21:03:21.956Z,17.80
2023-05-15T21:06:09.724Z,17.80
2023-05-15T21:08:55.774Z,17.70
2023-05-15T21:11:41.530Z,18.00
2023-05-15T21:14:26.899Z,18.10
2023-05-15T21:17:12.226Z,18.70
2023-05-15T21:19:58.597Z,18.90
2023-05-15T21:22:44.207Z,19.20
2023-05-15T21:25:29.590Z,19.30
2023-05-15T21:28:15.539Z,18.90
2023-05-15T21:31:12.815Z,19.00
2023-05-15T21:33:58.652Z,19.20
2023-05-15T21:36:44.143Z,18.90
2023-05-15T21:39:29.606Z,19.10
2023-05-15T21:42:14.967Z,18.70
2023-05-15T21:45:00.394Z,18.70
2023-05-15T21:47:45.651Z,19.00
2023-05-15T21:50:31.345Z,19.60
2023-05-15T21:53:18.855Z,18.80
2023-05-15T21:56:04.572Z,18.70
2023-05-15T21:58:50.631Z,18.90
2023-05-15T22:01:41.000Z,18.90
2023-05-15T22:04:30.255Z,19.10
2023-05-15T22:07:18.475Z,18.90
2023-05-15T22:10:07.539Z,19.30
2023-05-15T22:12:53.231Z,19.20
2023-05-15T22:15:38.806Z,19.40
2023-05-15T22:18:24.159Z,19.30
2023-05-15T22:21:09.835Z,19.20
2023-05-15T22:23:55.247Z,19.30
2023-05-15T22:26:43.820Z,19.30
2023-05-15T22:29:29.528Z,19.40
2023-05-15T22:32:17.853Z,19.20
2023-05-15T22:35:03.694Z,19.10
2023-05-15T22:37:49.288Z,19.10
2023-05-15T22:40:34.599Z,19.00
2023-05-15T22:43:21.514Z,19.00
2023-05-15T22:46:09.124Z,19.10
2023-05-15T22:49:00.548Z,19.50
2023-05-15T22:51:46.988Z,19.60
2023-05-15T22:54:35.080Z,20.00
2023-05-15T22:57:23.117Z,20.60
2023-05-15T23:00:09.937Z,20.60
2023-05-15T23:02:57.478Z,21.10
2023-05-15T23:05:46.368Z,21.40
2023-05-15T23:08:32.290Z,21.90
2023-05-15T23:11:20.513Z,22.10
2023-05-15T23:14:06.738Z,22.50
2023-05-15T23:16:52.563Z,22.80
2023-05-15T23:19:37.760Z,23.10
2023-05-15T23:22:23.876Z,23.30
2023-05-15T23:25:09.838Z,23.80
2023-05-15T23:27:55.572Z,24.30
2023-05-15T23:30:43.271Z,24.60
2023-05-15T23:33:28.932Z,24.70
2023-05-15T23:36:16.351Z,25.20
2023-05-15T23:39:01.849Z,25.60
2023-05-15T23:41:51.987Z,26.30
2023-05-15T23:44:37.663Z,26.60
2023-05-15T23:47:23.102Z,26.70
2023-05-15T23:50:08.989Z,26.80
2023-05-15T23:52:54.327Z,26.60
2023-05-15T23:55:39.725Z,26.50
2023-05-15T23:58:25.341Z,26.50
